Time;durP1;ratioP1;P1;durP2;ratioP2;P2;SDS_P1;SDS_P2;PMS_P1;PMS_P2;Temp;Humidity;BMP_temperature;BMP_pressure;BME280_temperature;BME280_humidity;BME280_pressure;Samples;Min_cycle;Max_cycle;Signal;HPM_P1;HPM_P2
2023/08/27 00:04:42;;;;;;;5.20;2.95;;;;;;;20.92;96.58;100253.31;5197390;54;1138676;-67
2023/08/27 00:09:48;;;;;;;3.27;2.98;;;;;;;20.83;96.84;100253.09;5128366;55;1138709;-66
2023/08/27 00:14:54;;;;;;;5.62;3.22;;;;;;;20.83;96.63;100264.69;5155821;55;1138907;-66
2023/08/27 00:20:00;;;;;;;3.95;2.92;;;;;;;20.81;96.83;100267.23;5201948;56;1138833;-66
2023/08/27 00:25:07;;;;;;;3.77;2.77;;;;;;;20.80;96.80;100266.41;5181839;56;1138693;-66
2023/08/27 00:30:13;;;;;;;10.70;3.17;;;;;;;20.71;96.93;100264.36;5182015;55;1138893;-67
2023/08/27 00:35:19;;;;;;;5.28;2.90;;;;;;;20.75;97.64;100252.73;5037526;56;1140992;-66
2023/08/27 00:40:26;;;;;;;5.30;3.05;;;;;;;20.96;98.45;100241.95;5017275;56;1138929;-66
2023/08/27 00:45:32;;;;;;;8.08;2.80;;;;;;;21.02;96.77;100248.42;4936008;57;1138673;-66
2023/08/27 00:50:38;;;;;;;4.72;2.80;;;;;;;20.93;96.89;100245.02;5112770;56;1138985;-66
2023/08/27 00:55:43;;;;;;;3.37;3.05;;;;;;;20.81;96.67;100244.39;5020829;57;1138792;-66
2023/08/27 01:00:50;;;;;;;6.00;3.00;;;;;;;20.73;97.61;100237.81;5022234;57;1138639;-66
2023/08/27 01:05:55;;;;;;;5.08;3.35;;;;;;;20.71;96.85;100233.45;5125719;56;1138554;-66
2023/08/27 01:11:29;;;;;;;3.80;3.37;;;;;;;20.61;96.77;100232.95;5105894;56;1138939;-65
2023/08/27 01:16:37;;;;;;;5.30;2.95;;;;;;;20.49;97.00;100233.62;5021061;57;1140317;-66
2023/08/27 01:21:44;;;;;;;3.10;2.80;;;;;;;20.43;98.33;100229.02;5125975;56;1138642;-66
2023/08/27 01:27:06;;;;;;;3.92;2.70;;;;;;;20.52;98.52;100247.51;5105708;56;1138812;-66
2023/08/27 01:32:31;;;;;;;5.60;3.20;;;;;;;20.49;97.85;100260.48;5021943;56;1138599;-66
2023/08/27 01:37:37;;;;;;;4.37;3.00;;;;;;;20.35;97.96;100272.39;5097522;56;1138892;-66
2023/08/27 01:42:43;;;;;;;4.08;3.08;;;;;;;20.33;98.56;100247.56;5022518;57;1138867;-66
2023/08/27 01:47:49;;;;;;;5.28;2.55;;;;;;;20.49;99.74;100225.55;5106447;56;1139006;-66
2023/08/27 01:52:55;;;;;;;3.83;2.90;;;;;;;20.56;99.14;100229.99;5042579;57;1138539;-66
2023/08/27 01:58:02;;;;;;;6.85;2.80;;;;;;;20.63;99.26;100236.25;5095491;56;1138679;-68
2023/08/27 02:03:08;;;;;;;6.58;3.80;;;;;;;20.74;99.84;100238.13;5100737;56;1138544;-66
2023/08/27 02:08:13;;;;;;;4.95;2.92;;;;;;;20.79;98.76;100249.12;5042873;57;1138524;-66
2023/08/27 02:13:19;;;;;;;4.65;3.10;;;;;;;20.63;97.67;100244.83;5022657;57;1138852;-66
2023/08/27 02:18:25;;;;;;;8.08;3.08;;;;;;;20.50;98.08;100242.00;5022487;56;1138887;-66
2023/08/27 02:23:30;;;;;;;4.10;2.37;;;;;;;20.33;98.13;100231.45;5126632;56;1138666;-66
2023/08/27 02:28:36;;;;;;;10.48;3.15;;;;;;;20.08;97.70;100236.83;5020008;57;1138690;-66
2023/08/27 02:33:42;;;;;;;3.72;3.33;;;;;;;19.94;98.85;100224.27;5106119;56;1140842;-66
2023/08/27 02:38:48;;;;;;;4.95;2.83;;;;;;;19.97;99.88;100226.58;5072633;56;1138675;-66
2023/08/27 02:43:53;;;;;;;3.33;2.30;;;;;;;20.02;100.00;100238.91;5042296;57;1138543;-66
2023/08/27 02:48:59;;;;;;;5.12;2.87;;;;;;;20.07;99.27;100219.06;5106281;56;1140604;-66
2023/08/27 02:54:05;;;;;;;5.28;3.10;;;;;;;19.98;99.03;100225.05;5022805;57;1138560;-66
2023/08/27 02:59:10;;;;;;;5.72;2.98;;;;;;;19.98;99.32;100226.39;5043096;56;1138652;-66
2023/08/27 03:04:16;;;;;;;8.08;2.80;;;;;;;20.07;99.85;100219.56;5010096;57;1138785;-65
2023/08/27 03:09:22;;;;;;;2.40;2.10;;;;;;;20.11;98.54;100219.52;5084665;56;1138831;-66
2023/08/27 03:14:28;;;;;;;3.12;2.70;;;;;;;20.01;97.69;100231.91;5124836;56;1138699;-65
2023/08/27 03:19:34;;;;;;;6.95;2.98;;;;;;;19.97;97.75;100234.63;5105023;55;1138683;-67
2023/08/27 03:24:39;;;;;;;2.80;2.60;;;;;;;19.99;97.60;100233.44;5090560;56;1138878;-66
2023/08/27 03:29:45;;;;;;;3.12;2.60;;;;;;;19.99;97.77;100236.11;5106645;55;1138808;-66
2023/08/27 03:34:51;;;;;;;3.27;2.83;;;;;;;20.04;97.90;100246.27;5125254;56;1138652;-66
2023/08/27 03:39:56;;;;;;;2.70;2.50;;;;;;;20.00;96.93;100251.72;5106837;56;1138768;-66
2023/08/27 03:45:03;;;;;;;2.56;2.40;;;;;;;19.87;96.45;100252.34;5123386;56;1138743;-68
2023/08/27 03:50:10;;;;;;;6.37;2.90;;;;;;;19.73;96.63;100256.38;5121290;56;1138722;-67
2023/08/27 03:55:16;;;;;;;2.85;2.40;;;;;;;19.58;97.26;100251.00;5106714;56;1138807;-66
2023/08/27 04:00:21;;;;;;;3.60;2.47;;;;;;;19.51;98.15;100258.96;5106403;56;1138976;-66
2023/08/27 04:05:26;;;;;;;3.48;2.22;;;;;;;19.42;98.15;100248.44;5141866;55;1138661;-66
2023/08/27 04:10:32;;;;;;;10.03;3.40;;;;;;;19.38;98.75;100248.50;5021711;56;1138764;-66
2023/08/27 04:15:37;;;;;;;6.70;2.87;;;;;;;19.35;98.62;100234.95;5042423;56;1140838;-66
2023/08/27 04:20:43;;;;;;;4.78;3.35;;;;;;;19.39;99.43;100232.74;4960391;58;1138907;-66
2023/08/27 04:25:49;;;;;;;3.95;2.75;;;;;;;19.53;99.44;100219.88;5022297;57;1138743;-66
2023/08/27 04:30:55;;;;;;;5.43;3.00;;;;;;;19.63;98.90;100228.48;4940611;58;1138830;-66
2023/08/27 04:36:00;;;;;;;8.48;3.50;;;;;;;19.75;99.46;100221.62;5056937;56;1138896;-66
2023/08/27 04:41:06;;;;;;;13.70;3.62;;;;;;;19.87;99.11;100224.16;5022204;57;1138705;-66
2023/08/27 04:46:12;;;;;;;8.65;2.98;;;;;;;19.98;98.64;100217.51;5105685;56;1140934;-67
2023/08/27 04:51:17;;;;;;;7.33;3.42;;;;;;;20.07;99.07;100208.83;5118258;56;1139204;-66
2023/08/27 04:56:23;;;;;;;7.72;2.75;;;;;;;20.09;98.33;100210.81;5279075;54;1138470;-66
2023/08/27 05:01:28;;;;;;;3.87;2.67;;;;;;;20.10;98.67;100214.66;5277992;54;1139092;-66
2023/08/27 05:06:34;;;;;;;5.72;3.33;;;;;;;20.02;97.83;100202.16;5231469;55;1138712;-66
2023/08/27 05:11:40;;;;;;;4.80;2.98;;;;;;;19.96;98.33;100208.30;5189947;55;1138735;-66
2023/08/27 05:16:45;;;;;;;5.95;2.75;;;;;;;19.83;98.73;100203.27;5190022;54;1138810;-66
2023/08/27 05:21:51;;;;;;;3.27;2.90;;;;;;;19.78;99.68;100209.19;5190154;54;1138663;-66
2023/08/27 05:26:57;;;;;;;3.45;2.50;;;;;;;19.77;99.79;100226.30;5209567;55;1138774;-66
2023/08/27 05:32:03;;;;;;;11.53;2.25;;;;;;;19.76;99.82;100225.98;5201767;55;1139008;-66
2023/08/27 05:37:08;;;;;;;4.90;2.08;;;;;;;19.68;99.06;100234.14;5279267;54;1140617;-66
2023/08/27 05:42:14;;;;;;;6.83;2.90;;;;;;;19.60;99.17;100235.05;5300362;54;1138862;-66
2023/08/27 05:47:20;;;;;;;8.48;2.60;;;;;;;19.55;99.39;100234.78;5278701;54;1138814;-66
2023/08/27 05:52:26;;;;;;;3.55;2.60;;;;;;;19.61;99.54;100235.88;5285964;54;1138819;-66
2023/08/27 05:57:34;;;;;;;4.28;2.77;;;;;;;19.63;99.18;100229.31;5309142;54;1138968;-67
2023/08/27 06:02:40;;;;;;;4.40;2.65;;;;;;;19.63;99.52;100232.00;5262176;54;1138622;-66
2023/08/27 06:07:46;;;;;;;5.55;2.45;;;;;;;19.69;99.87;100230.44;5253999;54;1138827;-66
2023/08/27 06:12:52;;;;;;;4.35;2.62;;;;;;;19.71;99.38;100235.62;5224744;54;1138777;-66
2023/08/27 06:18:02;;;;;;;4.40;3.00;;;;;;;19.79;99.96;100232.83;5221075;54;1138439;-66
2023/08/27 06:23:06;;;;;;;4.17;3.10;;;;;;;19.75;99.47;100220.28;5218780;55;1138570;-65
2023/08/27 06:28:12;;;;;;;5.05;3.05;;;;;;;19.78;100.00;100210.53;5198148;54;1138731;-66
2023/08/27 06:33:17;;;;;;;6.20;3.50;;;;;;;20.00;100.00;100202.88;5214535;55;1140702;-66
2023/08/27 06:38:24;;;;;;;5.75;3.70;;;;;;;20.25;100.00;100191.30;5194109;55;1140864;-66
2023/08/27 06:43:29;;;;;;;7.40;4.62;;;;;;;20.42;100.00;100177.66;5204005;54;1140928;-66
2023/08/27 06:48:35;;;;;;;8.43;4.10;;;;;;;20.54;100.00;100169.41;5188040;54;1140710;-67
2023/08/27 06:53:41;;;;;;;4.60;4.20;;;;;;;20.56;100.00;100162.82;5140713;55;1140819;-66
2023/08/27 06:58:48;;;;;;;9.13;4.60;;;;;;;20.71;100.00;100171.64;4957846;57;1140635;-67
2023/08/27 07:03:53;;;;;;;9.27;4.43;;;;;;;21.07;100.00;100170.70;5132316;55;1140755;-66
2023/08/27 07:08:59;;;;;;;5.30;3.83;;;;;;;21.46;100.00;100160.75;5146062;55;1140920;-66
2023/08/27 07:14:06;;;;;;;5.10;4.60;;;;;;;21.75;100.00;100151.58;5044108;57;1141089;-67
2023/08/27 07:19:11;;;;;;;10.08;5.32;;;;;;;21.83;100.00;100139.81;5052312;57;1140925;-67
2023/08/27 07:24:17;;;;;;;10.38;4.90;;;;;;;21.92;100.00;100134.05;5069916;57;1142776;-66
2023/08/27 07:29:23;;;;;;;7.05;5.00;;;;;;;21.96;100.00;100112.94;5138318;55;1143300;-66
2023/08/27 07:34:29;;;;;;;13.20;5.72;;;;;;;21.98;100.00;100106.32;5139162;55;1140772;-67
2023/08/27 07:39:35;;;;;;;7.05;6.28;;;;;;;22.00;100.00;100109.64;5159248;55;1143141;-66
2023/08/27 07:44:40;;;;;;;9.13;5.33;;;;;;;22.05;100.00;100109.88;5138854;55;1141118;-67
2023/08/27 07:49:47;;;;;;;7.72;4.67;;;;;;;22.17;100.00;100126.27;5138930;55;1141135;-66
2023/08/27 07:54:52;;;;;;;6.90;5.07;;;;;;;22.27;100.00;100131.28;5190365;54;1141099;-66
2023/08/27 07:59:58;;;;;;;6.75;5.28;;;;;;;22.35;100.00;100122.98;5309269;54;1141053;-67
2023/08/27 08:05:04;;;;;;;12.65;5.58;;;;;;;22.38;100.00;100115.84;5272773;54;1140706;-66
2023/08/27 08:10:10;;;;;;;8.25;7.45;;;;;;;22.42;100.00;100131.92;5142362;55;1143100;-67
2023/08/27 08:15:16;;;;;;;6.30;5.62;;;;;;;22.46;100.00;100138.02;5107744;55;1140836;-67
2023/08/27 08:20:22;;;;;;;5.43;4.93;;;;;;;22.52;100.00;100138.25;5199461;54;1140859;-67
2023/08/27 08:25:28;;;;;;;5.05;4.65;;;;;;;22.53;100.00;100141.26;5287409;54;1140917;-68
2023/08/27 08:30:34;;;;;;;4.37;4.08;;;;;;;22.51;100.00;100164.38;5308717;54;1141025;-67
2023/08/27 08:35:40;;;;;;;7.80;6.15;;;;;;;22.54;100.00;100167.17;5288320;54;1140964;-67
2023/08/27 08:40:55;;;;;;;6.10;5.30;;;;;;;22.64;100.00;100174.33;5288106;54;1140970;-66
2023/08/27 08:46:09;;;;;;;5.43;4.93;;;;;;;22.68;100.00;100168.85;5288379;54;1140899;-67
2023/08/27 08:51:15;;;;;;;4.30;3.90;;;;;;;22.80;100.00;100182.89;5309710;54;1140821;-67
2023/08/27 08:56:30;;;;;;;4.40;4.00;;;;;;;22.86;100.00;100162.37;5236168;54;1140856;-67
2023/08/27 09:01:37;;;;;;;7.80;4.35;;;;;;;23.10;100.00;100156.84;5239943;54;1140602;-67
2023/08/27 09:06:44;;;;;;;5.40;4.87;;;;;;;23.34;100.00;100149.45;5245447;55;1140719;-67
2023/08/27 09:11:52;;;;;;;9.03;4.65;;;;;;;23.31;100.00;100153.91;5189598;55;1141025;-67
2023/08/27 09:16:58;;;;;;;5.22;4.78;;;;;;;23.13;99.24;100172.09;5215090;55;1140782;-67
2023/08/27 09:22:04;;;;;;;10.15;5.05;;;;;;;22.95;99.41;100175.94;5299114;54;1138973;-66
2023/08/27 09:27:09;;;;;;;5.35;4.40;;;;;;;22.79;100.00;100165.56;5245985;54;1140668;-67
2023/08/27 09:32:24;;;;;;;8.33;4.75;;;;;;;22.68;100.00;100156.72;5277985;54;1140635;-67
2023/08/27 09:37:42;;;;;;;8.35;4.22;;;;;;;22.69;100.00;100157.03;5280983;54;1140754;-67
2023/08/27 09:42:47;;;;;;;5.28;4.78;;;;;;;22.71;100.00;100169.28;5277702;54;1140883;-66
2023/08/27 09:47:58;;;;;;;4.40;4.03;;;;;;;22.72;100.00;100165.55;5278361;55;1141028;-67
2023/08/27 09:53:14;;;;;;;7.00;4.53;;;;;;;22.73;100.00;100156.42;5298621;54;1140757;-67
2023/08/27 09:58:21;;;;;;;4.92;4.17;;;;;;;22.76;100.00;100145.75;5224209;55;1140977;-67
2023/08/27 10:03:31;;;;;;;12.30;5.33;;;;;;;22.81;100.00;100159.45;5155922;54;1140762;-67
2023/08/27 10:08:52;;;;;;;8.08;4.53;;;;;;;22.85;100.00;100155.31;5209619;54;1142745;-67
2023/08/27 10:13:58;;;;;;;7.65;4.78;;;;;;;23.05;100.00;100122.94;5179923;54;1141019;-66
2023/08/27 10:19:06;;;;;;;10.07;5.33;;;;;;;23.30;100.00;100129.32;5267786;54;1140823;-67
2023/08/27 10:24:12;;;;;;;7.53;6.20;;;;;;;23.39;100.00;100130.73;5266782;54;1142838;-67
2023/08/27 10:29:18;;;;;;;7.95;5.12;;;;;;;23.42;100.00;100109.25;5212187;55;1140662;-66
2023/08/27 10:34:28;;;;;;;5.27;4.87;;;;;;;23.52;100.00;100118.30;5212424;55;1140686;-66
2023/08/27 10:39:34;;;;;;;5.75;4.67;;;;;;;23.60;100.00;100116.70;5130904;56;1140877;-67
2023/08/27 10:44:40;;;;;;;8.08;4.42;;;;;;;23.61;99.29;100111.61;5274988;54;1140779;-66
2023/08/27 10:49:49;;;;;;;5.97;4.62;;;;;;;23.57;98.07;100111.72;5191380;55;1138751;-66
2023/08/27 10:55:02;;;;;;;7.30;4.43;;;;;;;23.54;99.19;100121.06;5262339;54;1138757;-68
2023/08/27 11:00:12;;;;;;;6.78;3.37;;;;;;;23.45;97.51;100127.72;5280659;54;1138655;-68
2023/08/27 11:05:28;;;;;;;42.80;26.85;;;;;;;23.35;97.40;100134.92;5314887;54;1138934;-68
2023/08/27 11:10:34;;;;;;;4.58;4.17;;;;;;;23.29;97.97;100124.13;5279684;54;1142880;-69
2023/08/27 11:15:42;;;;;;;4.62;4.17;;;;;;;23.39;99.26;100108.31;5274331;54;1139044;-69
2023/08/27 11:20:48;;;;;;;4.33;3.87;;;;;;;23.64;100.00;100091.77;5281485;54;1138685;-68
2023/08/27 11:25:54;;;;;;;12.78;3.95;;;;;;;23.78;97.57;100092.02;5057518;56;1140857;-67
2023/08/27 11:31:00;;;;;;;4.85;4.20;;;;;;;23.86;96.63;100093.63;5148005;56;1140957;-66
2023/08/27 11:36:05;;;;;;;5.20;4.12;;;;;;;23.90;95.69;100080.00;5102908;55;1138628;-68
2023/08/27 11:41:11;;;;;;;4.72;4.14;;;;;;;23.89;95.21;100083.73;5147640;55;1138814;-69
2023/08/27 11:46:26;;;;;;;4.33;3.67;;;;;;;23.89;95.72;100073.45;5172232;55;1138656;-66
2023/08/27 11:51:32;;;;;;;7.25;4.58;;;;;;;23.93;96.33;100078.73;5133002;55;1138466;-67
2023/08/27 11:56:40;;;;;;;4.47;4.08;;;;;;;23.99;95.27;100077.86;5130197;56;1138436;-68
2023/08/27 12:01:46;;;;;;;5.22;3.88;;;;;;;23.96;94.41;100075.61;5291911;54;1138747;-69
2023/08/27 12:06:56;;;;;;;16.73;4.37;;;;;;;23.92;94.27;100073.86;5240574;53;1138867;-65
2023/08/27 12:12:07;;;;;;;10.90;4.85;;;;;;;23.93;94.90;100066.06;5044889;56;1140843;-67
2023/08/27 12:17:14;;;;;;;7.73;4.67;;;;;;;23.92;94.51;100073.03;5200340;55;1141108;-68
2023/08/27 12:22:19;;;;;;;10.90;4.37;;;;;;;23.90;94.89;100065.14;5208777;55;1138996;-66
2023/08/27 12:27:25;;;;;;;8.87;3.83;;;;;;;23.90;94.54;100051.64;5198543;55;1140953;-66
2023/08/27 12:32:33;;;;;;;6.40;4.00;;;;;;;23.87;94.49;100038.56;5197829;55;1138892;-68
2023/08/27 12:37:38;;;;;;;4.00;3.55;;;;;;;23.80;94.13;100033.73;5217750;55;1138635;-66
2023/08/27 12:42:44;;;;;;;7.67;5.00;;;;;;;23.73;94.22;100043.21;5198301;55;1138762;-67
2023/08/27 12:47:50;;;;;;;5.15;3.77;;;;;;;23.67;95.16;100039.22;5265605;54;1138702;-66
2023/08/27 12:52:55;;;;;;;4.08;3.67;;;;;;;23.61;95.27;100037.36;5287550;54;1138784;-68
2023/08/27 12:58:01;;;;;;;5.10;4.08;;;;;;;23.50;95.06;100035.62;5260054;54;1138949;-66
2023/08/27 13:03:07;;;;;;;7.08;3.52;;;;;;;23.52;96.12;100028.70;5250343;54;1138744;-67
2023/08/27 13:08:13;;;;;;;8.73;4.30;;;;;;;23.48;95.95;100048.50;5298680;54;1138748;-69
2023/08/27 13:13:19;;;;;;;7.00;3.58;;;;;;;23.53;96.65;100032.22;5164577;55;1138670;-67
2023/08/27 13:18:24;;;;;;;4.33;3.85;;;;;;;23.59;97.02;100030.00;5045408;56;1138874;-66
2023/08/27 13:23:30;;;;;;;6.70;4.35;;;;;;;23.57;96.50;100015.88;5228077;54;1138937;-67
2023/08/27 13:28:36;;;;;;;4.15;3.80;;;;;;;23.62;96.59;100028.22;5218750;54;1138845;-69
2023/08/27 13:33:42;;;;;;;4.47;3.90;;;;;;;23.66;97.17;100013.25;5197437;53;1138596;-67
2023/08/27 13:38:47;;;;;;;6.03;4.25;;;;;;;23.69;97.27;100009.58;5198885;55;1138597;-67
2023/08/27 13:43:53;;;;;;;7.28;5.05;;;;;;;23.76;96.91;100006.33;5198999;54;1138556;-68
2023/08/27 13:48:59;;;;;;;5.60;4.95;;;;;;;23.88;97.07;100002.92;5218199;55;1139183;-69
2023/08/27 13:54:05;;;;;;;6.70;4.78;;;;;;;23.85;96.77;100004.18;5200272;55;1138623;-67
2023/08/27 13:59:10;;;;;;;6.28;5.12;;;;;;;23.82;97.13;99988.44;5219197;54;1138809;-67
2023/08/27 14:04:16;;;;;;;6.58;4.83;;;;;;;23.75;97.28;99982.23;5236272;54;1136504;-67
2023/08/27 14:09:21;;;;;;;5.00;4.43;;;;;;;23.74;97.55;99987.33;5232150;54;1136868;-68
2023/08/27 14:14:27;;;;;;;9.10;4.67;;;;;;;23.70;97.24;99994.20;5086964;56;1136491;-68
2023/08/27 14:19:33;;;;;;;5.63;3.93;;;;;;;23.71;97.90;99991.81;5041786;57;1136602;-69
2023/08/27 14:24:38;;;;;;;7.28;5.35;;;;;;;23.64;97.34;100005.37;5013809;57;1136967;-65
2023/08/27 14:29:44;;;;;;;8.53;4.72;;;;;;;23.60;98.58;99999.26;5105618;56;1138941;-67
2023/08/27 14:34:50;;;;;;;11.30;5.10;;;;;;;23.61;99.32;99976.09;5018867;57;1136675;-66
2023/08/27 14:39:55;;;;;;;8.20;5.00;;;;;;;23.63;99.55;99975.88;5112187;56;1138828;-69
2023/08/27 14:45:01;;;;;;;7.15;4.97;;;;;;;23.59;100.00;99964.69;5085831;57;1136702;-67
2023/08/27 14:50:07;;;;;;;7.25;4.78;;;;;;;23.48;100.00;99965.34;5085884;57;1138646;-66
2023/08/27 14:55:13;;;;;;;7.30;4.85;;;;;;;23.27;100.00;99957.03;5111587;56;1138900;-66
2023/08/27 15:00:19;;;;;;;6.58;4.30;;;;;;;23.14;100.00;99954.41;5022111;57;1138702;-66
2023/08/27 15:05:24;;;;;;;8.28;4.35;;;;;;;23.11;100.00;99957.00;5116338;56;1138714;-66
2023/08/27 15:10:30;;;;;;;11.33;6.70;;;;;;;23.09;100.00;99952.34;5139700;56;1138955;-68
2023/08/27 15:15:36;;;;;;;6.50;5.87;;;;;;;23.02;100.00;99933.20;5058772;56;1140814;-67
2023/08/27 15:20:41;;;;;;;67.37;47.03;;;;;;;23.04;100.00;99931.12;5022400;56;1138544;-66
2023/08/27 15:25:47;;;;;;;9.23;6.65;;;;;;;23.03;100.00;99933.50;5104772;56;1142981;-67
2023/08/27 15:30:54;;;;;;;8.50;5.85;;;;;;;23.01;100.00;99936.41;5126108;56;1138821;-68
2023/08/27 15:35:59;;;;;;;4.80;4.22;;;;;;;22.85;100.00;99938.75;5022721;57;1138950;-67
2023/08/27 15:41:05;;;;;;;4.97;4.47;;;;;;;22.63;100.00;99933.59;5117911;56;1138838;-65
2023/08/27 15:46:14;;;;;;;4.60;4.20;;;;;;;22.41;100.00;99937.08;5139522;56;1138634;-67
2023/08/27 15:51:20;;;;;;;7.60;5.83;;;;;;;22.32;100.00;99928.88;5116362;56;1138980;-68
2023/08/27 15:56:26;;;;;;;6.25;5.60;;;;;;;22.42;100.00;99934.69;5022036;56;1138902;-66
2023/08/27 16:01:31;;;;;;;4.85;4.37;;;;;;;22.39;100.00;99935.10;5042042;56;1138815;-67
2023/08/27 16:06:37;;;;;;;7.08;5.50;;;;;;;22.06;100.00;99934.30;5022174;57;1138936;-68
2023/08/27 16:11:45;;;;;;;8.85;4.42;;;;;;;21.78;100.00;99927.74;5039516;56;1138964;-66
2023/08/27 16:16:51;;;;;;;10.38;6.42;;;;;;;21.64;100.00;99927.42;4981803;56;1139048;-68
2023/08/27 16:21:56;;;;;;;15.05;9.50;;;;;;;21.43;100.00;99931.09;5218526;55;1140874;-68
2023/08/27 16:27:03;;;;;;;16.27;7.00;;;;;;;21.34;100.00;99925.60;5198413;54;1140893;-66
2023/08/27 16:32:09;;;;;;;14.00;10.40;;;;;;;21.37;100.00;99924.69;5198636;54;1140744;-69
2023/08/27 16:37:15;;;;;;;8.58;6.17;;;;;;;21.22;100.00;99929.92;5218620;54;1142805;-66
2023/08/27 16:42:20;;;;;;;10.95;6.40;;;;;;;21.05;100.00;99926.21;5195052;55;1138900;-68
2023/08/27 16:47:26;;;;;;;16.87;10.57;;;;;;;20.84;100.00;99930.34;5055660;56;1140822;-68
2023/08/27 16:52:32;;;;;;;10.35;6.05;;;;;;;20.71;100.00;99942.38;5309349;54;1142916;-66
2023/08/27 16:57:37;;;;;;;8.38;5.30;;;;;;;20.62;100.00;99936.86;5286144;54;1140803;-65
2023/08/27 17:02:43;;;;;;;7.95;6.08;;;;;;;20.56;100.00;99926.38;5057858;55;1139082;-65
2023/08/27 17:07:49;;;;;;;14.55;5.80;;;;;;;20.51;100.00;99919.42;5140312;55;1138840;-65
2023/08/27 17:12:54;;;;;;;14.00;6.42;;;;;;;20.63;100.00;99911.63;5151700;55;1141198;-64
2023/08/27 17:18:00;;;;;;;15.15;7.95;;;;;;;20.77;100.00;99930.84;5087116;56;1140900;-69
2023/08/27 17:23:08;;;;;;;12.03;6.70;;;;;;;20.56;100.00;99939.81;4994939;56;1140989;-69
2023/08/27 17:28:14;;;;;;;18.50;9.28;;;;;;;20.32;100.00;99939.71;5010621;57;1140779;-65
2023/08/27 17:33:19;;;;;;;9.53;6.87;;;;;;;20.15;100.00;99941.06;5104755;56;1140875;-66
2023/08/27 17:38:25;;;;;;;8.78;4.80;;;;;;;19.99;100.00;99936.80;5103851;56;1138799;-68
2023/08/27 17:43:30;;;;;;;6.93;4.87;;;;;;;19.85;100.00;99935.03;5092402;56;1138701;-65
2023/08/27 17:48:36;;;;;;;5.70;4.67;;;;;;;19.74;100.00;99948.95;5045141;56;1138892;-66
2023/08/27 17:53:42;;;;;;;5.40;4.12;;;;;;;19.63;100.00;99940.08;5022091;57;1138532;-66
2023/08/27 17:58:48;;;;;;;8.90;4.42;;;;;;;19.49;100.00;99932.89;5030282;57;1138843;-70
2023/08/27 18:03:53;;;;;;;9.85;4.72;;;;;;;19.31;100.00;99927.44;5043908;57;1139255;-67
2023/08/27 18:08:59;;;;;;;7.22;5.05;;;;;;;19.20;100.00;99929.79;5259586;55;1138614;-68
2023/08/27 18:14:05;;;;;;;6.90;4.63;;;;;;;19.09;100.00;99929.78;5255755;54;1138871;-69
2023/08/27 18:19:10;;;;;;;9.58;5.83;;;;;;;19.03;100.00;99915.78;5308196;54;1138863;-66
2023/08/27 18:24:16;;;;;;;12.65;7.50;;;;;;;18.98;100.00;99906.95;5288151;54;1138557;-65
2023/08/27 18:29:22;;;;;;;6.50;4.92;;;;;;;18.95;100.00;99901.96;5277705;54;1140733;-69
2023/08/27 18:34:27;;;;;;;6.33;4.17;;;;;;;18.84;100.00;99913.17;5256173;54;1138841;-65
2023/08/27 18:39:33;;;;;;;6.15;4.33;;;;;;;18.76;100.00;99925.34;5211822;54;1139098;-67
2023/08/27 18:44:39;;;;;;;5.58;4.25;;;;;;;18.70;100.00;99926.08;5194033;55;1138800;-68
2023/08/27 18:49:45;;;;;;;6.58;3.55;;;;;;;18.67;100.00;99947.87;5227397;54;1138813;-69
2023/08/27 18:54:50;;;;;;;5.53;3.92;;;;;;;18.64;100.00;99944.75;5230328;54;1138817;-68
2023/08/27 18:59:56;;;;;;;5.33;3.77;;;;;;;18.53;100.00;99944.14;5279914;54;1138816;-68
2023/08/27 19:05:01;;;;;;;4.35;3.60;;;;;;;18.48;100.00;99937.70;5264225;54;1138870;-66
2023/08/27 19:10:08;;;;;;;6.28;3.70;;;;;;;18.30;100.00;99961.31;5259624;54;1138715;-69
2023/08/27 19:15:14;;;;;;;4.80;3.80;;;;;;;18.23;100.00;99955.33;5260096;54;1138723;-68
2023/08/27 19:20:20;;;;;;;5.04;3.64;;;;;;;18.19;100.00;99945.99;5286110;54;1138659;-69
2023/08/27 19:25:26;;;;;;;5.13;4.33;;;;;;;18.17;100.00;99935.17;5245920;54;1139064;-69
2023/08/27 19:30:32;;;;;;;4.85;4.37;;;;;;;18.11;100.00;99935.38;5214150;54;1138783;-70
2023/08/27 19:35:38;;;;;;;6.60;5.15;;;;;;;18.09;100.00;99936.06;5105412;55;1138892;-68
2023/08/27 19:40:44;;;;;;;7.22;4.30;;;;;;;18.09;100.00;99950.78;5013877;56;1139124;-69
2023/08/27 19:45:57;;;;;;;4.92;4.42;;;;;;;18.05;100.00;99968.20;5080577;56;1138994;-69
2023/08/27 19:51:05;;;;;;;4.80;4.13;;;;;;;17.98;100.00;99975.81;5030316;56;1139011;-68
2023/08/27 19:56:11;;;;;;;7.17;4.05;;;;;;;17.88;100.00;99968.84;5096563;55;1138941;-68
2023/08/27 20:01:17;;;;;;;3.60;3.30;;;;;;;17.84;100.00;99956.86;5124101;56;1138923;-66
2023/08/27 20:06:22;;;;;;;6.45;3.58;;;;;;;17.92;100.00;99959.96;5063664;57;1138782;-69
2023/08/27 20:11:28;;;;;;;4.00;3.65;;;;;;;17.93;100.00;99953.60;5043951;57;1138726;-65
2023/08/27 20:16:34;;;;;;;7.77;4.47;;;;;;;18.00;100.00;99955.06;5113112;56;1138836;-69
2023/08/27 20:21:39;;;;;;;4.12;3.72;;;;;;;18.03;100.00;99972.07;5129170;56;1138954;-67
2023/08/27 20:26:45;;;;;;;4.47;4.05;;;;;;;18.01;100.00;99966.93;5021732;57;1138876;-67
2023/08/27 20:31:50;;;;;;;7.78;4.85;;;;;;;17.98;100.00;99964.61;5105806;56;1138544;-70
2023/08/27 20:36:56;;;;;;;5.93;3.83;;;;;;;17.92;100.00;99958.62;5022500;57;1138783;-69
2023/08/27 20:42:02;;;;;;;4.42;3.98;;;;;;;17.93;100.00;99981.19;5125141;56;1138723;-67
2023/08/27 20:47:08;;;;;;;4.92;4.33;;;;;;;17.89;100.00;99958.47;5021921;57;1139005;-66
2023/08/27 20:52:13;;;;;;;7.80;4.87;;;;;;;17.89;100.00;99962.98;5105293;56;1138806;-67
2023/08/27 20:57:20;;;;;;;4.75;4.35;;;;;;;17.87;100.00;99964.50;5041816;57;1138958;-69
2023/08/27 21:02:25;;;;;;;5.58;4.70;;;;;;;17.87;100.00;99967.18;5092196;56;1139900;-68
2023/08/27 21:07:31;;;;;;;5.77;4.60;;;;;;;17.83;100.00;99962.39;5231302;54;1138761;-69
2023/08/27 21:12:36;;;;;;;4.78;4.15;;;;;;;17.76;100.00;99958.25;5014451;56;1138782;-69
2023/08/27 21:17:42;;;;;;;4.72;4.28;;;;;;;17.77;100.00;99963.92;5046771;56;1138843;-69
2023/08/27 21:22:48;;;;;;;5.37;4.10;;;;;;;17.77;100.00;99954.56;5063232;56;1138795;-69
2023/08/27 21:27:54;;;;;;;6.07;4.00;;;;;;;17.75;100.00;99953.07;5198701;55;1138994;-69
2023/08/27 21:32:59;;;;;;;4.22;3.90;;;;;;;17.71;100.00;99959.31;5214201;55;1138873;-69
2023/08/27 21:38:05;;;;;;;4.17;3.85;;;;;;;17.67;100.00;99957.99;5197824;55;1139130;-65
2023/08/27 21:43:12;;;;;;;5.45;4.10;;;;;;;17.68;100.00;99952.97;5198111;55;1138843;-68
2023/08/27 21:48:17;;;;;;;4.17;3.77;;;;;;;17.70;100.00;99955.47;5218815;54;1138970;-67
2023/08/27 21:53:23;;;;;;;10.35;4.47;;;;;;;17.71;100.00;99941.92;5178626;55;1138769;-70
2023/08/27 21:58:29;;;;;;;5.00;3.77;;;;;;;17.68;100.00;99944.95;5280032;54;1140859;-65
2023/08/27 22:03:34;;;;;;;4.72;4.08;;;;;;;17.69;100.00;99953.80;5264618;54;1139056;-68
2023/08/27 22:08:40;;;;;;;9.18;4.20;;;;;;;17.70;100.00;99967.51;5198910;55;1138949;-66
2023/08/27 22:13:45;;;;;;;3.90;3.65;;;;;;;17.63;100.00;99975.87;5207241;54;1138613;-64
2023/08/27 22:18:53;;;;;;;7.58;4.05;;;;;;;17.56;100.00;99970.41;5057561;56;1138741;-64
2023/08/27 22:23:58;;;;;;;5.17;4.17;;;;;;;17.46;100.00;99965.27;5131335;56;1138711;-69
2023/08/27 22:29:04;;;;;;;4.83;3.83;;;;;;;17.33;100.00;99973.05;5231577;54;1138814;-68
2023/08/27 22:34:09;;;;;;;5.28;3.27;;;;;;;17.32;100.00;99985.25;5231949;54;1138886;-67
2023/08/27 22:39:15;;;;;;;3.40;3.13;;;;;;;17.27;100.00;99988.94;5251750;54;1138725;-65
2023/08/27 22:44:21;;;;;;;3.30;3.05;;;;;;;17.26;100.00;99995.32;5232077;54;1138717;-65
2023/08/27 22:49:26;;;;;;;5.42;2.92;;;;;;;17.30;100.00;99987.25;5232428;54;1138749;-70
2023/08/27 22:54:32;;;;;;;3.17;2.90;;;;;;;17.29;100.00;100003.80;5252004;54;1138814;-65
2023/08/27 22:59:38;;;;;;;12.03;3.17;;;;;;;17.21;100.00;100003.34;5230870;54;1140934;-67
2023/08/27 23:04:43;;;;;;;5.70;2.75;;;;;;;17.19;100.00;100000.52;5171529;54;1142946;-66
2023/08/27 23:09:49;;;;;;;6.00;2.70;;;;;;;17.17;100.00;99992.67;5146256;54;1140942;-68